EGPH/EDI METAR and TAF weather

Enter ICAO airport designator
Station Type Date Time Source
EGPH METAR 2019/04/25 01:50 UTC NOAA

EGPH 250150Z 00000KT 0500 R06/0800 FG VV/// 08/08 Q0994


Station Type Date Time Source
EGPH Decoded METAR 2019/04/25 01:50 UTC NOAA

Edinburgh Airport, United Kingdom (EGPH) 55-57N 003-21W 0M
Apr 24, 2019 - 09:50 PM EDT / 2019.04.25 0150 UTC
Wind: Calm:0
Visibility: less than 1 mile:0
Sky conditions: obscured
Weather: fog
Temperature: 46 F (8 C)
Dew Point: 46 F (8 C)
Relative Humidity: 100%
Pressure (altimeter): 29.35 in. Hg (0994 hPa)
ob: EGPH 250150Z 00000KT 0500 R06/0800 FG VV/// 08/08 Q0994
cycle: 2

Station Type Date Time Source
EGPH TAF 2019/04/24 18:09 UTC NOAA

TAF TAF EGPH 241656Z 2418/2518 06014KT 3000 BR BKN003 PROB40
TEMPO 2419/2423 0400 FG VV///
BECMG 2500/2503 15005KT 9999 NSW SCT012 PROB30
TEMPO 2503/2506 BKN012
BECMG 2510/2513 08010KT
TEMPO 2512/2518 8000 RA BKN010 PROB30
TEMPO 2514/2516 4000 +RA BKN007

Example: see airport list